sensor_id;sensor_type;location;lat;lon;timestamp;P1;durP1;ratioP1;P2;durP2;ratioP2
15104;SDS011;7653;48.994;9.212;2023-11-22T00:00:50;4.03;;;2.90;;
15104;SDS011;7653;48.994;9.212;2023-11-22T00:03:16;5.60;;;3.50;;
15104;SDS011;7653;48.994;9.212;2023-11-22T00:05:42;4.27;;;3.40;;
15104;SDS011;7653;48.994;9.212;2023-11-22T00:08:08;2.83;;;2.40;;
15104;SDS011;7653;48.994;9.212;2023-11-22T00:10:33;2.53;;;1.83;;
15104;SDS011;7653;48.994;9.212;2023-11-22T00:12:59;5.30;;;3.00;;
15104;SDS011;7653;48.994;9.212;2023-11-22T00:15:25;4.67;;;3.23;;
15104;SDS011;7653;48.994;9.212;2023-11-22T00:17:51;3.13;;;2.23;;
15104;SDS011;7653;48.994;9.212;2023-11-22T00:20:17;4.77;;;3.27;;
15104;SDS011;7653;48.994;9.212;2023-11-22T00:22:43;5.17;;;3.50;;
15104;SDS011;7653;48.994;9.212;2023-11-22T00:25:10;6.70;;;3.63;;
15104;SDS011;7653;48.994;9.212;2023-11-22T00:27:38;4.40;;;3.20;;
15104;SDS011;7653;48.994;9.212;2023-11-22T00:30:04;4.60;;;3.77;;
15104;SDS011;7653;48.994;9.212;2023-11-22T00:32:30;2.47;;;2.07;;
15104;SDS011;7653;48.994;9.212;2023-11-22T00:34:56;3.57;;;2.23;;
15104;SDS011;7653;48.994;9.212;2023-11-22T00:37:22;4.33;;;3.53;;
15104;SDS011;7653;48.994;9.212;2023-11-22T00:39:48;4.20;;;3.03;;
15104;SDS011;7653;48.994;9.212;2023-11-22T00:42:13;5.07;;;2.63;;
15104;SDS011;7653;48.994;9.212;2023-11-22T00:44:39;2.80;;;2.40;;
15104;SDS011;7653;48.994;9.212;2023-11-22T00:47:05;4.27;;;3.40;;
15104;SDS011;7653;48.994;9.212;2023-11-22T00:49:31;2.90;;;2.60;;
15104;SDS011;7653;48.994;9.212;2023-11-22T00:51:57;2.63;;;2.30;;
15104;SDS011;7653;48.994;9.212;2023-11-22T00:54:23;4.50;;;2.73;;
15104;SDS011;7653;48.994;9.212;2023-11-22T00:56:51;3.07;;;2.47;;
15104;SDS011;7653;48.994;9.212;2023-11-22T00:59:16;2.07;;;1.73;;
15104;SDS011;7653;48.994;9.212;2023-11-22T01:01:42;2.77;;;2.23;;
15104;SDS011;7653;48.994;9.212;2023-11-22T01:04:07;4.43;;;2.70;;
15104;SDS011;7653;48.994;9.212;2023-11-22T01:06:33;3.23;;;2.40;;
15104;SDS011;7653;48.994;9.212;2023-11-22T01:08:59;4.03;;;2.70;;
15104;SDS011;7653;48.994;9.212;2023-11-22T01:11:25;2.83;;;2.53;;
15104;SDS011;7653;48.994;9.212;2023-11-22T01:13:51;3.47;;;2.43;;
15104;SDS011;7653;48.994;9.212;2023-11-22T01:16:16;3.27;;;2.80;;
15104;SDS011;7653;48.994;9.212;2023-11-22T01:18:42;2.53;;;2.27;;
15104;SDS011;7653;48.994;9.212;2023-11-22T01:21:08;2.50;;;2.20;;
15104;SDS011;7653;48.994;9.212;2023-11-22T01:23:34;3.67;;;2.17;;
15104;SDS011;7653;48.994;9.212;2023-11-22T01:26:00;2.50;;;2.20;;
15104;SDS011;7653;48.994;9.212;2023-11-22T01:28:29;2.97;;;2.47;;
15104;SDS011;7653;48.994;9.212;2023-11-22T01:30:59;3.13;;;2.60;;
15104;SDS011;7653;48.994;9.212;2023-11-22T01:33:25;3.23;;;2.40;;
15104;SDS011;7653;48.994;9.212;2023-11-22T01:35:52;2.57;;;1.97;;
15104;SDS011;7653;48.994;9.212;2023-11-22T01:38:17;6.13;;;2.10;;
15104;SDS011;7653;48.994;9.212;2023-11-22T01:40:44;4.40;;;2.30;;
15104;SDS011;7653;48.994;9.212;2023-11-22T01:43:14;3.10;;;2.47;;
15104;SDS011;7653;48.994;9.212;2023-11-22T01:45:41;4.40;;;2.53;;
15104;SDS011;7653;48.994;9.212;2023-11-22T01:48:07;3.47;;;2.27;;
15104;SDS011;7653;48.994;9.212;2023-11-22T01:50:36;3.40;;;2.07;;
15104;SDS011;7653;48.994;9.212;2023-11-22T01:53:08;3.20;;;2.37;;
15104;SDS011;7653;48.994;9.212;2023-11-22T01:55:36;2.90;;;2.30;;
15104;SDS011;7653;48.994;9.212;2023-11-22T01:58:02;2.93;;;2.40;;
15104;SDS011;7653;48.994;9.212;2023-11-22T02:00:30;3.20;;;2.50;;
15104;SDS011;7653;48.994;9.212;2023-11-22T02:03:00;2.10;;;1.57;;
15104;SDS011;7653;48.994;9.212;2023-11-22T02:05:25;3.70;;;2.53;;
15104;SDS011;7653;48.994;9.212;2023-11-22T02:07:51;3.40;;;2.60;;
15104;SDS011;7653;48.994;9.212;2023-11-22T02:10:17;3.73;;;2.70;;
15104;SDS011;7653;48.994;9.212;2023-11-22T02:12:43;2.50;;;1.87;;
15104;SDS011;7653;48.994;9.212;2023-11-22T02:15:08;4.07;;;2.50;;
15104;SDS011;7653;48.994;9.212;2023-11-22T02:17:34;2.97;;;2.37;;
15104;SDS011;7653;48.994;9.212;2023-11-22T02:20:01;5.43;;;2.60;;
15104;SDS011;7653;48.994;9.212;2023-11-22T02:22:31;4.97;;;2.90;;
15104;SDS011;7653;48.994;9.212;2023-11-22T02:24:56;5.00;;;2.60;;
15104;SDS011;7653;48.994;9.212;2023-11-22T02:27:22;3.27;;;2.53;;
15104;SDS011;7653;48.994;9.212;2023-11-22T02:29:48;4.00;;;2.50;;
15104;SDS011;7653;48.994;9.212;2023-11-22T02:32:15;5.27;;;2.60;;
15104;SDS011;7653;48.994;9.212;2023-11-22T02:34:40;4.27;;;3.03;;
15104;SDS011;7653;48.994;9.212;2023-11-22T02:37:06;3.17;;;2.47;;
15104;SDS011;7653;48.994;9.212;2023-11-22T02:39:53;3.70;;;2.80;;
15104;SDS011;7653;48.994;9.212;2023-11-22T02:42:25;4.80;;;3.40;;
15104;SDS011;7653;48.994;9.212;2023-11-22T02:44:51;3.40;;;2.80;;
15104;SDS011;7653;48.994;9.212;2023-11-22T02:47:16;3.33;;;2.57;;
15104;SDS011;7653;48.994;9.212;2023-11-22T02:49:42;3.97;;;3.10;;
15104;SDS011;7653;48.994;9.212;2023-11-22T02:52:07;4.27;;;3.40;;
15104;SDS011;7653;48.994;9.212;2023-11-22T02:54:33;3.43;;;2.03;;
15104;SDS011;7653;48.994;9.212;2023-11-22T02:56:59;4.13;;;2.57;;
15104;SDS011;7653;48.994;9.212;2023-11-22T02:59:25;4.13;;;3.23;;
15104;SDS011;7653;48.994;9.212;2023-11-22T03:01:51;4.57;;;3.47;;
15104;SDS011;7653;48.994;9.212;2023-11-22T03:04:16;4.13;;;2.90;;
15104;SDS011;7653;48.994;9.212;2023-11-22T03:06:42;4.23;;;2.90;;
15104;SDS011;7653;48.994;9.212;2023-11-22T03:09:08;3.63;;;2.90;;
15104;SDS011;7653;48.994;9.212;2023-11-22T03:11:34;4.27;;;2.83;;
15104;SDS011;7653;48.994;9.212;2023-11-22T03:13:59;6.53;;;3.00;;
15104;SDS011;7653;48.994;9.212;2023-11-22T03:16:28;6.00;;;3.33;;
15104;SDS011;7653;48.994;9.212;2023-11-22T03:18:54;4.77;;;3.27;;
15104;SDS011;7653;48.994;9.212;2023-11-22T03:21:20;5.43;;;3.20;;
15104;SDS011;7653;48.994;9.212;2023-11-22T03:23:45;4.03;;;3.30;;
15104;SDS011;7653;48.994;9.212;2023-11-22T03:26:11;4.50;;;3.70;;
15104;SDS011;7653;48.994;9.212;2023-11-22T03:28:37;5.70;;;3.30;;
15104;SDS011;7653;48.994;9.212;2023-11-22T03:31:03;4.00;;;2.90;;
15104;SDS011;7653;48.994;9.212;2023-11-22T03:33:30;3.70;;;3.17;;
15104;SDS011;7653;48.994;9.212;2023-11-22T03:35:56;3.53;;;2.30;;
15104;SDS011;7653;48.994;9.212;2023-11-22T03:38:23;3.40;;;2.30;;
15104;SDS011;7653;48.994;9.212;2023-11-22T03:40:48;3.83;;;2.90;;
15104;SDS011;7653;48.994;9.212;2023-11-22T03:43:14;4.37;;;3.10;;
15104;SDS011;7653;48.994;9.212;2023-11-22T03:45:40;5.27;;;2.80;;
15104;SDS011;7653;48.994;9.212;2023-11-22T03:48:05;3.50;;;3.00;;
15104;SDS011;7653;48.994;9.212;2023-11-22T03:50:31;3.87;;;2.80;;
15104;SDS011;7653;48.994;9.212;2023-11-22T03:52:58;3.03;;;2.40;;
15104;SDS011;7653;48.994;9.212;2023-11-22T03:55:23;3.67;;;2.37;;
15104;SDS011;7653;48.994;9.212;2023-11-22T03:57:49;3.30;;;2.77;;
15104;SDS011;7653;48.994;9.212;2023-11-22T04:00:15;3.37;;;2.60;;
15104;SDS011;7653;48.994;9.212;2023-11-22T04:02:41;3.83;;;2.23;;
15104;SDS011;7653;48.994;9.212;2023-11-22T04:05:07;5.93;;;3.20;;
15104;SDS011;7653;48.994;9.212;2023-11-22T04:07:33;4.27;;;2.57;;
15104;SDS011;7653;48.994;9.212;2023-11-22T04:09:58;3.80;;;2.70;;
15104;SDS011;7653;48.994;9.212;2023-11-22T04:12:24;5.17;;;2.50;;
15104;SDS011;7653;48.994;9.212;2023-11-22T04:14:50;4.30;;;2.60;;
15104;SDS011;7653;48.994;9.212;2023-11-22T04:17:16;6.03;;;2.70;;
15104;SDS011;7653;48.994;9.212;2023-11-22T04:19:43;3.77;;;2.90;;
15104;SDS011;7653;48.994;9.212;2023-11-22T04:22:08;3.57;;;2.67;;
15104;SDS011;7653;48.994;9.212;2023-11-22T04:24:35;5.20;;;2.57;;
15104;SDS011;7653;48.994;9.212;2023-11-22T04:27:01;3.70;;;2.67;;
15104;SDS011;7653;48.994;9.212;2023-11-22T04:29:27;4.80;;;3.00;;
15104;SDS011;7653;48.994;9.212;2023-11-22T04:31:53;3.90;;;3.10;;
15104;SDS011;7653;48.994;9.212;2023-11-22T04:34:18;3.30;;;2.63;;
15104;SDS011;7653;48.994;9.212;2023-11-22T04:36:45;4.33;;;3.20;;
15104;SDS011;7653;48.994;9.212;2023-11-22T04:39:11;3.90;;;2.80;;
15104;SDS011;7653;48.994;9.212;2023-11-22T04:41:38;2.93;;;2.60;;
15104;SDS011;7653;48.994;9.212;2023-11-22T04:44:04;3.80;;;2.90;;
15104;SDS011;7653;48.994;9.212;2023-11-22T04:46:29;3.00;;;2.70;;
15104;SDS011;7653;48.994;9.212;2023-11-22T04:48:56;4.87;;;3.27;;
15104;SDS011;7653;48.994;9.212;2023-11-22T04:51:22;5.63;;;3.23;;
15104;SDS011;7653;48.994;9.212;2023-11-22T04:53:49;4.63;;;3.13;;
15104;SDS011;7653;48.994;9.212;2023-11-22T04:56:15;4.63;;;3.10;;
15104;SDS011;7653;48.994;9.212;2023-11-22T04:58:41;3.57;;;2.53;;
15104;SDS011;7653;48.994;9.212;2023-11-22T05:01:07;3.33;;;2.90;;
15104;SDS011;7653;48.994;9.212;2023-11-22T05:03:35;3.20;;;2.53;;
15104;SDS011;7653;48.994;9.212;2023-11-22T05:06:02;4.00;;;3.03;;
15104;SDS011;7653;48.994;9.212;2023-11-22T05:08:29;4.03;;;2.70;;
15104;SDS011;7653;48.994;9.212;2023-11-22T05:10:55;3.20;;;2.63;;
15104;SDS011;7653;48.994;9.212;2023-11-22T05:13:21;3.80;;;2.47;;
15104;SDS011;7653;48.994;9.212;2023-11-22T05:15:46;2.80;;;2.30;;
15104;SDS011;7653;48.994;9.212;2023-11-22T05:18:12;4.70;;;2.70;;
15104;SDS011;7653;48.994;9.212;2023-11-22T05:20:38;3.33;;;2.23;;
15104;SDS011;7653;48.994;9.212;2023-11-22T05:23:03;3.47;;;2.70;;
15104;SDS011;7653;48.994;9.212;2023-11-22T05:25:29;5.60;;;2.30;;
15104;SDS011;7653;48.994;9.212;2023-11-22T05:27:55;2.73;;;2.10;;
15104;SDS011;7653;48.994;9.212;2023-11-22T05:30:21;3.93;;;2.90;;
15104;SDS011;7653;48.994;9.212;2023-11-22T05:32:47;3.30;;;2.30;;
15104;SDS011;7653;48.994;9.212;2023-11-22T05:35:13;5.80;;;2.67;;
15104;SDS011;7653;48.994;9.212;2023-11-22T05:37:39;3.90;;;2.33;;
15104;SDS011;7653;48.994;9.212;2023-11-22T05:40:05;3.63;;;2.63;;
15104;SDS011;7653;48.994;9.212;2023-11-22T05:42:34;3.00;;;2.37;;
15104;SDS011;7653;48.994;9.212;2023-11-22T05:45:00;4.17;;;2.70;;
15104;SDS011;7653;48.994;9.212;2023-11-22T05:47:26;2.80;;;2.10;;
15104;SDS011;7653;48.994;9.212;2023-11-22T05:49:52;3.07;;;2.37;;
15104;SDS011;7653;48.994;9.212;2023-11-22T05:52:17;2.37;;;2.17;;
15104;SDS011;7653;48.994;9.212;2023-11-22T05:54:44;4.23;;;2.57;;
15104;SDS011;7653;48.994;9.212;2023-11-22T05:57:10;4.00;;;2.53;;
15104;SDS011;7653;48.994;9.212;2023-11-22T05:59:36;2.77;;;2.20;;
15104;SDS011;7653;48.994;9.212;2023-11-22T06:02:01;2.93;;;2.63;;
15104;SDS011;7653;48.994;9.212;2023-11-22T06:04:27;3.27;;;2.20;;
15104;SDS011;7653;48.994;9.212;2023-11-22T06:06:52;5.13;;;2.70;;
15104;SDS011;7653;48.994;9.212;2023-11-22T06:09:18;2.43;;;2.20;;
15104;SDS011;7653;48.994;9.212;2023-11-22T06:11:44;2.83;;;2.17;;
15104;SDS011;7653;48.994;9.212;2023-11-22T06:14:09;4.90;;;2.67;;
15104;SDS011;7653;48.994;9.212;2023-11-22T06:16:35;3.60;;;2.67;;
15104;SDS011;7653;48.994;9.212;2023-11-22T06:19:00;3.97;;;2.00;;
15104;SDS011;7653;48.994;9.212;2023-11-22T06:21:26;3.03;;;2.23;;
15104;SDS011;7653;48.994;9.212;2023-11-22T06:23:52;3.63;;;2.20;;
15104;SDS011;7653;48.994;9.212;2023-11-22T06:26:22;3.03;;;1.90;;
15104;SDS011;7653;48.994;9.212;2023-11-22T06:28:48;3.00;;;2.27;;
15104;SDS011;7653;48.994;9.212;2023-11-22T06:31:14;3.27;;;1.70;;
15104;SDS011;7653;48.994;9.212;2023-11-22T06:33:40;4.93;;;2.40;;
15104;SDS011;7653;48.994;9.212;2023-11-22T06:36:06;3.67;;;2.47;;
15104;SDS011;7653;48.994;9.212;2023-11-22T06:38:32;4.83;;;2.63;;
15104;SDS011;7653;48.994;9.212;2023-11-22T06:40:57;3.20;;;2.03;;
15104;SDS011;7653;48.994;9.212;2023-11-22T06:43:23;3.67;;;2.10;;
15104;SDS011;7653;48.994;9.212;2023-11-22T06:45:48;3.83;;;2.00;;
15104;SDS011;7653;48.994;9.212;2023-11-22T06:48:15;2.90;;;2.03;;
15104;SDS011;7653;48.994;9.212;2023-11-22T06:50:41;3.50;;;2.20;;
15104;SDS011;7653;48.994;9.212;2023-11-22T06:53:07;2.87;;;1.93;;
15104;SDS011;7653;48.994;9.212;2023-11-22T06:55:33;1.27;;;1.03;;
15104;SDS011;7653;48.994;9.212;2023-11-22T06:57:58;3.47;;;2.00;;
15104;SDS011;7653;48.994;9.212;2023-11-22T07:00:24;1.93;;;1.30;;
15104;SDS011;7653;48.994;9.212;2023-11-22T07:02:52;3.23;;;2.00;;
15104;SDS011;7653;48.994;9.212;2023-11-22T07:05:18;3.13;;;1.83;;
15104;SDS011;7653;48.994;9.212;2023-11-22T07:07:44;3.23;;;2.10;;
15104;SDS011;7653;48.994;9.212;2023-11-22T07:10:09;1.47;;;1.10;;
15104;SDS011;7653;48.994;9.212;2023-11-22T07:12:36;3.27;;;2.80;;
15104;SDS011;7653;48.994;9.212;2023-11-22T07:15:03;3.23;;;2.17;;
15104;SDS011;7653;48.994;9.212;2023-11-22T07:17:30;3.80;;;1.97;;
15104;SDS011;7653;48.994;9.212;2023-11-22T07:19:58;2.63;;;2.00;;
15104;SDS011;7653;48.994;9.212;2023-11-22T07:22:25;3.63;;;2.20;;
15104;SDS011;7653;48.994;9.212;2023-11-22T07:24:51;3.03;;;2.20;;
15104;SDS011;7653;48.994;9.212;2023-11-22T07:27:19;3.70;;;2.47;;
15104;SDS011;7653;48.994;9.212;2023-11-22T07:29:45;3.23;;;2.43;;
15104;SDS011;7653;48.994;9.212;2023-11-22T07:32:11;3.63;;;2.20;;
15104;SDS011;7653;48.994;9.212;2023-11-22T07:34:37;2.67;;;2.23;;
15104;SDS011;7653;48.994;9.212;2023-11-22T07:37:04;1.23;;;0.90;;
15104;SDS011;7653;48.994;9.212;2023-11-22T07:39:33;2.73;;;2.20;;
15104;SDS011;7653;48.994;9.212;2023-11-22T07:42:00;3.93;;;2.33;;
15104;SDS011;7653;48.994;9.212;2023-11-22T07:44:26;3.13;;;1.90;;
15104;SDS011;7653;48.994;9.212;2023-11-22T07:46:52;2.87;;;2.17;;
15104;SDS011;7653;48.994;9.212;2023-11-22T07:49:19;2.87;;;2.17;;
15104;SDS011;7653;48.994;9.212;2023-11-22T07:51:46;3.73;;;2.67;;
15104;SDS011;7653;48.994;9.212;2023-11-22T07:54:12;5.27;;;2.53;;
15104;SDS011;7653;48.994;9.212;2023-11-22T07:56:40;4.63;;;2.57;;
15104;SDS011;7653;48.994;9.212;2023-11-22T07:59:11;4.40;;;2.50;;
15104;SDS011;7653;48.994;9.212;2023-11-22T08:01:37;3.23;;;1.60;;
15104;SDS011;7653;48.994;9.212;2023-11-22T08:04:03;3.20;;;2.57;;
15104;SDS011;7653;48.994;9.212;2023-11-22T08:06:31;3.67;;;2.67;;
15104;SDS011;7653;48.994;9.212;2023-11-22T08:08:57;4.67;;;2.47;;
15104;SDS011;7653;48.994;9.212;2023-11-22T08:11:26;4.90;;;3.00;;
15104;SDS011;7653;48.994;9.212;2023-11-22T08:13:54;3.97;;;2.53;;
15104;SDS011;7653;48.994;9.212;2023-11-22T08:16:23;3.43;;;2.80;;
15104;SDS011;7653;48.994;9.212;2023-11-22T08:18:48;3.67;;;2.90;;
15104;SDS011;7653;48.994;9.212;2023-11-22T08:21:14;3.80;;;2.90;;
15104;SDS011;7653;48.994;9.212;2023-11-22T08:23:40;4.73;;;2.90;;
15104;SDS011;7653;48.994;9.212;2023-11-22T08:26:06;3.17;;;1.73;;
15104;SDS011;7653;48.994;9.212;2023-11-22T08:28:33;2.83;;;2.40;;
15104;SDS011;7653;48.994;9.212;2023-11-22T08:30:59;3.77;;;2.70;;
15104;SDS011;7653;48.994;9.212;2023-11-22T08:33:29;7.47;;;3.13;;
15104;SDS011;7653;48.994;9.212;2023-11-22T08:35:55;2.63;;;1.93;;
15104;SDS011;7653;48.994;9.212;2023-11-22T08:38:23;4.10;;;3.20;;
15104;SDS011;7653;48.994;9.212;2023-11-22T08:40:50;3.33;;;2.60;;
15104;SDS011;7653;48.994;9.212;2023-11-22T08:43:15;4.03;;;2.63;;
15104;SDS011;7653;48.994;9.212;2023-11-22T08:45:41;3.23;;;2.73;;
15104;SDS011;7653;48.994;9.212;2023-11-22T08:48:09;5.37;;;3.23;;
15104;SDS011;7653;48.994;9.212;2023-11-22T08:50:34;3.47;;;2.73;;
15104;SDS011;7653;48.994;9.212;2023-11-22T08:53:00;4.07;;;2.83;;
15104;SDS011;7653;48.994;9.212;2023-11-22T08:55:26;3.83;;;2.83;;
15104;SDS011;7653;48.994;9.212;2023-11-22T08:57:51;4.17;;;2.33;;
15104;SDS011;7653;48.994;9.212;2023-11-22T09:00:17;3.53;;;2.07;;
15104;SDS011;7653;48.994;9.212;2023-11-22T09:02:50;4.40;;;3.07;;
15104;SDS011;7653;48.994;9.212;2023-11-22T09:05:16;5.03;;;3.30;;
15104;SDS011;7653;48.994;9.212;2023-11-22T09:07:44;4.40;;;3.03;;
15104;SDS011;7653;48.994;9.212;2023-11-22T09:10:10;3.83;;;3.00;;
15104;SDS011;7653;48.994;9.212;2023-11-22T09:12:37;5.00;;;2.93;;
15104;SDS011;7653;48.994;9.212;2023-11-22T09:15:10;4.90;;;3.10;;
15104;SDS011;7653;48.994;9.212;2023-11-22T09:17:38;7.97;;;5.77;;
15104;SDS011;7653;48.994;9.212;2023-11-22T09:20:11;6.13;;;3.70;;
15104;SDS011;7653;48.994;9.212;2023-11-22T09:22:44;4.80;;;3.30;;
15104;SDS011;7653;48.994;9.212;2023-11-22T09:25:13;4.10;;;3.07;;
15104;SDS011;7653;48.994;9.212;2023-11-22T09:27:41;6.87;;;3.50;;
15104;SDS011;7653;48.994;9.212;2023-11-22T09:30:08;3.50;;;2.93;;
15104;SDS011;7653;48.994;9.212;2023-11-22T09:32:42;6.23;;;3.53;;
15104;SDS011;7653;48.994;9.212;2023-11-22T09:35:10;4.73;;;3.73;;
15104;SDS011;7653;48.994;9.212;2023-11-22T09:37:38;3.90;;;3.27;;
15104;SDS011;7653;48.994;9.212;2023-11-22T09:40:07;7.27;;;2.97;;
15104;SDS011;7653;48.994;9.212;2023-11-22T09:42:34;6.33;;;3.47;;
15104;SDS011;7653;48.994;9.212;2023-11-22T09:45:00;5.40;;;3.30;;
15104;SDS011;7653;48.994;9.212;2023-11-22T09:47:28;4.10;;;3.37;;
15104;SDS011;7653;48.994;9.212;2023-11-22T09:49:57;4.63;;;3.10;;
15104;SDS011;7653;48.994;9.212;2023-11-22T09:52:26;4.37;;;3.13;;
15104;SDS011;7653;48.994;9.212;2023-11-22T09:54:59;5.20;;;3.37;;
15104;SDS011;7653;48.994;9.212;2023-11-22T09:57:27;7.70;;;4.90;;
15104;SDS011;7653;48.994;9.212;2023-11-22T09:59:55;5.73;;;2.87;;
15104;SDS011;7653;48.994;9.212;2023-11-22T10:02:23;7.60;;;5.27;;
15104;SDS011;7653;48.994;9.212;2023-11-22T10:04:52;7.03;;;4.23;;
15104;SDS011;7653;48.994;9.212;2023-11-22T10:07:19;5.47;;;4.13;;
15104;SDS011;7653;48.994;9.212;2023-11-22T10:09:44;16.80;;;10.50;;
15104;SDS011;7653;48.994;9.212;2023-11-22T10:12:11;6.87;;;5.10;;
15104;SDS011;7653;48.994;9.212;2023-11-22T10:14:37;4.43;;;3.00;;
15104;SDS011;7653;48.994;9.212;2023-11-22T10:17:03;4.10;;;3.00;;
15104;SDS011;7653;48.994;9.212;2023-11-22T10:19:30;4.87;;;3.50;;
15104;SDS011;7653;48.994;9.212;2023-11-22T10:22:02;7.57;;;3.40;;
15104;SDS011;7653;48.994;9.212;2023-11-22T10:24:32;4.83;;;3.30;;
15104;SDS011;7653;48.994;9.212;2023-11-22T10:26:59;4.23;;;2.97;;
15104;SDS011;7653;48.994;9.212;2023-11-22T10:29:25;3.43;;;2.70;;
15104;SDS011;7653;48.994;9.212;2023-11-22T10:31:51;5.23;;;3.53;;
15104;SDS011;7653;48.994;9.212;2023-11-22T10:34:21;5.10;;;3.70;;
15104;SDS011;7653;48.994;9.212;2023-11-22T10:36:48;5.00;;;4.50;;
15104;SDS011;7653;48.994;9.212;2023-11-22T10:39:19;5.13;;;4.23;;
15104;SDS011;7653;48.994;9.212;2023-11-22T10:41:45;5.43;;;3.83;;
15104;SDS011;7653;48.994;9.212;2023-11-22T10:44:11;4.40;;;3.67;;
15104;SDS011;7653;48.994;9.212;2023-11-22T10:46:38;4.50;;;3.10;;
15104;SDS011;7653;48.994;9.212;2023-11-22T10:49:05;8.53;;;4.87;;
15104;SDS011;7653;48.994;9.212;2023-11-22T10:51:31;11.17;;;8.50;;
15104;SDS011;7653;48.994;9.212;2023-11-22T10:53:58;5.43;;;4.37;;
15104;SDS011;7653;48.994;9.212;2023-11-22T10:56:28;6.23;;;5.20;;
15104;SDS011;7653;48.994;9.212;2023-11-22T10:59:11;6.07;;;3.87;;
15104;SDS011;7653;48.994;9.212;2023-11-22T11:01:39;4.67;;;3.40;;
15104;SDS011;7653;48.994;9.212;2023-11-22T11:04:11;3.90;;;3.50;;
15104;SDS011;7653;48.994;9.212;2023-11-22T11:06:46;5.80;;;3.60;;
15104;SDS011;7653;48.994;9.212;2023-11-22T11:09:17;4.83;;;3.67;;
15104;SDS011;7653;48.994;9.212;2023-11-22T11:11:46;5.90;;;3.60;;
15104;SDS011;7653;48.994;9.212;2023-11-22T11:14:12;6.07;;;3.40;;
15104;SDS011;7653;48.994;9.212;2023-11-22T11:16:40;7.30;;;5.33;;
15104;SDS011;7653;48.994;9.212;2023-11-22T11:19:12;4.47;;;3.03;;
15104;SDS011;7653;48.994;9.212;2023-11-22T11:21:42;4.13;;;3.70;;
15104;SDS011;7653;48.994;9.212;2023-11-22T11:24:08;29.77;;;15.00;;
15104;SDS011;7653;48.994;9.212;2023-11-22T11:26:34;6.27;;;4.60;;
15104;SDS011;7653;48.994;9.212;2023-11-22T11:28:59;5.33;;;4.30;;
15104;SDS011;7653;48.994;9.212;2023-11-22T11:31:25;5.73;;;4.07;;
15104;SDS011;7653;48.994;9.212;2023-11-22T11:33:58;5.20;;;3.63;;
15104;SDS011;7653;48.994;9.212;2023-11-22T11:38:56;6.63;;;3.63;;
15104;SDS011;7653;48.994;9.212;2023-11-22T11:41:24;5.40;;;4.10;;
15104;SDS011;7653;48.994;9.212;2023-11-22T11:43:52;5.60;;;4.40;;
15104;SDS011;7653;48.994;9.212;2023-11-22T11:46:20;6.47;;;4.47;;
15104;SDS011;7653;48.994;9.212;2023-11-22T11:48:48;5.53;;;4.00;;
15104;SDS011;7653;48.994;9.212;2023-11-22T11:51:19;5.57;;;4.60;;
15104;SDS011;7653;48.994;9.212;2023-11-22T11:53:49;6.27;;;4.73;;
15104;SDS011;7653;48.994;9.212;2023-11-22T11:56:15;5.87;;;3.97;;
15104;SDS011;7653;48.994;9.212;2023-11-22T11:58:44;14.10;;;8.13;;
15104;SDS011;7653;48.994;9.212;2023-11-22T12:01:12;6.23;;;4.47;;
15104;SDS011;7653;48.994;9.212;2023-11-22T12:03:38;5.27;;;4.10;;
15104;SDS011;7653;48.994;9.212;2023-11-22T12:06:04;7.07;;;4.17;;
15104;SDS011;7653;48.994;9.212;2023-11-22T12:08:31;7.40;;;4.50;;
15104;SDS011;7653;48.994;9.212;2023-11-22T12:11:01;5.20;;;4.37;;
15104;SDS011;7653;48.994;9.212;2023-11-22T12:13:33;3.83;;;2.67;;
15104;SDS011;7653;48.994;9.212;2023-11-22T12:16:00;7.50;;;5.30;;
15104;SDS011;7653;48.994;9.212;2023-11-22T12:18:27;6.10;;;5.30;;
15104;SDS011;7653;48.994;9.212;2023-11-22T12:20:54;6.33;;;3.90;;
15104;SDS011;7653;48.994;9.212;2023-11-22T12:23:21;7.40;;;4.93;;
15104;SDS011;7653;48.994;9.212;2023-11-22T12:25:48;5.30;;;4.03;;
15104;SDS011;7653;48.994;9.212;2023-11-22T12:28:18;5.17;;;3.97;;
15104;SDS011;7653;48.994;9.212;2023-11-22T12:30:43;6.37;;;3.90;;
15104;SDS011;7653;48.994;9.212;2023-11-22T12:33:10;6.80;;;4.77;;
15104;SDS011;7653;48.994;9.212;2023-11-22T12:35:40;5.60;;;4.40;;
15104;SDS011;7653;48.994;9.212;2023-11-22T12:38:09;6.03;;;4.03;;
15104;SDS011;7653;48.994;9.212;2023-11-22T12:40:35;6.60;;;4.43;;
15104;SDS011;7653;48.994;9.212;2023-11-22T12:43:02;3.93;;;2.93;;
15104;SDS011;7653;48.994;9.212;2023-11-22T12:45:32;6.97;;;4.37;;
15104;SDS011;7653;48.994;9.212;2023-11-22T12:48:19;5.53;;;3.77;;
15104;SDS011;7653;48.994;9.212;2023-11-22T12:50:53;5.33;;;3.90;;
15104;SDS011;7653;48.994;9.212;2023-11-22T12:53:19;5.23;;;4.00;;
15104;SDS011;7653;48.994;9.212;2023-11-22T12:55:50;5.67;;;4.53;;
15104;SDS011;7653;48.994;9.212;2023-11-22T12:58:16;7.00;;;4.30;;
15104;SDS011;7653;48.994;9.212;2023-11-22T13:00:47;7.73;;;4.90;;
15104;SDS011;7653;48.994;9.212;2023-11-22T13:03:14;6.53;;;4.13;;
15104;SDS011;7653;48.994;9.212;2023-11-22T13:05:40;7.17;;;4.80;;
15104;SDS011;7653;48.994;9.212;2023-11-22T13:08:08;6.27;;;4.00;;
15104;SDS011;7653;48.994;9.212;2023-11-22T13:10:37;7.73;;;4.73;;
15104;SDS011;7653;48.994;9.212;2023-11-22T13:13:19;5.67;;;4.23;;
15104;SDS011;7653;48.994;9.212;2023-11-22T13:15:48;5.87;;;4.30;;
15104;SDS011;7653;48.994;9.212;2023-11-22T13:18:14;5.97;;;4.23;;
15104;SDS011;7653;48.994;9.212;2023-11-22T13:20:41;4.30;;;3.90;;
15104;SDS011;7653;48.994;9.212;2023-11-22T13:23:08;4.90;;;3.83;;
15104;SDS011;7653;48.994;9.212;2023-11-22T13:25:33;6.20;;;4.33;;
15104;SDS011;7653;48.994;9.212;2023-11-22T13:27:59;7.70;;;3.73;;
15104;SDS011;7653;48.994;9.212;2023-11-22T13:30:25;7.10;;;4.53;;
15104;SDS011;7653;48.994;9.212;2023-11-22T13:32:52;6.43;;;4.40;;
15104;SDS011;7653;48.994;9.212;2023-11-22T13:35:21;6.20;;;4.50;;
15104;SDS011;7653;48.994;9.212;2023-11-22T13:37:47;7.30;;;4.80;;
15104;SDS011;7653;48.994;9.212;2023-11-22T13:40:14;6.43;;;4.60;;
15104;SDS011;7653;48.994;9.212;2023-11-22T13:45:09;7.70;;;5.37;;
15104;SDS011;7653;48.994;9.212;2023-11-22T13:47:41;6.87;;;4.37;;
15104;SDS011;7653;48.994;9.212;2023-11-22T13:50:08;7.30;;;5.60;;
15104;SDS011;7653;48.994;9.212;2023-11-22T13:52:34;6.20;;;5.27;;
15104;SDS011;7653;48.994;9.212;2023-11-22T13:55:00;8.60;;;5.40;;
15104;SDS011;7653;48.994;9.212;2023-11-22T13:57:26;4.60;;;4.00;;
15104;SDS011;7653;48.994;9.212;2023-11-22T13:59:52;5.27;;;3.80;;
15104;SDS011;7653;48.994;9.212;2023-11-22T14:02:22;5.00;;;3.80;;
15104;SDS011;7653;48.994;9.212;2023-11-22T14:04:47;7.03;;;4.20;;
15104;SDS011;7653;48.994;9.212;2023-11-22T14:07:13;6.47;;;3.70;;
15104;SDS011;7653;48.994;9.212;2023-11-22T14:09:39;5.37;;;4.00;;
15104;SDS011;7653;48.994;9.212;2023-11-22T14:12:05;5.60;;;4.40;;
15104;SDS011;7653;48.994;9.212;2023-11-22T14:14:31;5.53;;;3.83;;
15104;SDS011;7653;48.994;9.212;2023-11-22T14:16:56;4.57;;;3.40;;
15104;SDS011;7653;48.994;9.212;2023-11-22T14:19:22;5.10;;;3.97;;
15104;SDS011;7653;48.994;9.212;2023-11-22T14:21:48;4.53;;;3.77;;
15104;SDS011;7653;48.994;9.212;2023-11-22T14:24:14;5.67;;;3.90;;
15104;SDS011;7653;48.994;9.212;2023-11-22T14:26:40;5.60;;;3.57;;
15104;SDS011;7653;48.994;9.212;2023-11-22T14:29:05;4.50;;;3.77;;
15104;SDS011;7653;48.994;9.212;2023-11-22T14:31:31;3.80;;;3.20;;
15104;SDS011;7653;48.994;9.212;2023-11-22T14:33:57;4.63;;;3.57;;
15104;SDS011;7653;48.994;9.212;2023-11-22T14:36:23;5.53;;;4.47;;
15104;SDS011;7653;48.994;9.212;2023-11-22T14:38:49;4.97;;;3.73;;
15104;SDS011;7653;48.994;9.212;2023-11-22T14:41:19;6.17;;;4.17;;
15104;SDS011;7653;48.994;9.212;2023-11-22T14:43:45;4.87;;;3.70;;
15104;SDS011;7653;48.994;9.212;2023-11-22T14:46:12;5.73;;;3.87;;
15104;SDS011;7653;48.994;9.212;2023-11-22T14:48:37;5.30;;;4.20;;
15104;SDS011;7653;48.994;9.212;2023-11-22T14:51:03;7.30;;;4.67;;
15104;SDS011;7653;48.994;9.212;2023-11-22T14:53:30;6.07;;;4.47;;
15104;SDS011;7653;48.994;9.212;2023-11-22T14:55:55;6.77;;;4.53;;
15104;SDS011;7653;48.994;9.212;2023-11-22T14:58:22;7.13;;;4.43;;
15104;SDS011;7653;48.994;9.212;2023-11-22T15:00:47;24.67;;;15.33;;
15104;SDS011;7653;48.994;9.212;2023-11-22T15:03:13;37.90;;;21.07;;